Time;durP1;ratioP1;P1;durP2;ratioP2;P2;SDS_P1;SDS_P2;PMS_P1;PMS_P2;Temp;Humidity;BMP_temperature;BMP_pressure;BME280_temperature;BME280_humidity;BME280_pressure;Samples;Min_cycle;Max_cycle;Signal;HPM_P1;HPM_P2
2022/08/27 00:01:30;;;;;;;13.88;10.63;;;;;;;20.25;90.68;96463.41;6228769;22;20048;-79
2022/08/27 00:03:58;;;;;;;12.25;10.50;;;;;;;20.29;91.29;96464.47;6239274;23;20021;-80
2022/08/27 00:06:26;;;;;;;11.45;10.27;;;;;;;20.30;92.28;96461.59;6239858;23;20020;-80
2022/08/27 00:08:54;;;;;;;16.55;11.45;;;;;;;20.34;93.91;96467.22;6240360;23;20001;-80
2022/08/27 00:11:24;;;;;;;15.02;11.40;;;;;;;20.38;93.81;96453.22;6239125;23;20025;-80
2022/08/27 00:13:52;;;;;;;11.57;8.82;;;;;;;20.32;89.79;96458.72;6242645;23;20060;-79
2022/08/27 00:16:20;;;;;;;12.57;8.57;;;;;;;20.29;89.71;96465.31;6238999;23;20017;-79
2022/08/27 00:18:49;;;;;;;13.45;11.18;;;;;;;20.35;92.75;96458.19;6240061;23;20032;-80
2022/08/27 00:21:18;;;;;;;13.40;9.38;;;;;;;20.37;93.53;96453.47;6239782;23;20008;-79
2022/08/27 00:23:45;;;;;;;10.18;8.63;;;;;;;20.34;90.95;96453.97;6240194;23;20039;-79
2022/08/27 00:26:14;;;;;;;12.40;9.30;;;;;;;20.34;90.51;96472.50;6239630;23;20020;-79
2022/08/27 00:28:43;;;;;;;10.30;7.50;;;;;;;20.29;87.66;96469.78;6239893;23;20020;-80
2022/08/27 00:31:11;;;;;;;11.80;8.02;;;;;;;20.28;88.60;96473.47;6240355;23;20028;-79
2022/08/27 00:33:39;;;;;;;9.00;7.03;;;;;;;20.25;86.51;96479.28;6240564;23;20020;-80
2022/08/27 00:36:10;;;;;;;7.63;6.80;;;;;;;20.23;84.26;96489.31;6240894;23;20021;-80
2022/08/27 00:38:39;;;;;;;9.05;7.45;;;;;;;20.20;81.97;96487.94;6240279;23;20024;-80
2022/08/27 00:41:10;;;;;;;8.70;7.80;;;;;;;20.23;86.78;96489.31;6240190;23;20008;-80
2022/08/27 00:43:46;;;;;;;13.65;8.98;;;;;;;20.29;89.47;96490.97;6240215;23;20021;-79
2022/08/27 00:46:20;;;;;;;8.73;7.55;;;;;;;20.28;90.20;96490.16;6239964;23;20020;-80
2022/08/27 00:48:51;;;;;;;8.95;7.05;;;;;;;20.20;84.37;96493.25;6240408;23;20047;-80
2022/08/27 00:51:20;;;;;;;13.45;7.80;;;;;;;20.19;86.18;96501.44;6240632;23;20025;-79
2022/08/27 00:53:49;;;;;;;9.30;7.32;;;;;;;20.20;87.55;96495.88;6242588;23;20052;-78
2022/08/27 00:56:20;;;;;;;9.60;7.47;;;;;;;20.21;88.41;96497.50;6239996;23;20031;-79
2022/08/27 00:58:51;;;;;;;12.25;8.48;;;;;;;20.19;87.76;96501.44;6237816;23;20055;-79
2022/08/27 01:01:21;;;;;;;8.90;6.57;;;;;;;20.12;85.01;96498.97;6240771;23;20024;-79
2022/08/27 01:03:52;;;;;;;9.20;7.13;;;;;;;20.13;89.16;96504.00;6240943;23;20027;-79
2022/08/27 01:06:23;;;;;;;9.80;6.93;;;;;;;20.09;84.52;96500.25;6240648;23;20008;-79
2022/08/27 01:08:58;;;;;;;8.55;6.60;;;;;;;20.01;81.78;96497.25;6240331;23;20040;-79
2022/08/27 01:11:26;;;;;;;8.57;7.30;;;;;;;20.00;84.87;96499.06;6239815;23;20021;-80
2022/08/27 01:13:54;;;;;;;12.38;7.65;;;;;;;20.07;89.40;96515.59;6240614;23;20017;-80
2022/08/27 01:16:32;;;;;;;11.35;7.40;;;;;;;20.05;87.36;96509.75;6242130;23;20032;-81
2022/08/27 01:19:00;;;;;;;8.15;6.07;;;;;;;19.98;83.27;96505.66;6241925;23;20013;-83
2022/08/27 01:21:36;;;;;;;8.20;6.80;;;;;;;19.88;81.36;96507.13;6241742;23;20025;-82
2022/08/27 01:24:12;;;;;;;9.25;6.75;;;;;;;19.84;80.54;96507.84;6241340;23;20031;-82
2022/08/27 01:26:41;;;;;;;9.30;7.00;;;;;;;19.78;80.38;96491.09;6242441;23;20012;-82
2022/08/27 01:32:31;;;;;;;9.82;7.35;;;;;;;19.71;80.25;96498.41;4273966;27;25664119;-78
2022/08/27 01:35:13;;;;;;;9.00;7.78;;;;;;;19.68;81.31;96499.66;5159466;27;20070;-80
2022/08/27 01:37:48;;;;;;;8.68;7.15;;;;;;;19.68;80.70;96504.16;5176621;27;20055;-80
2022/08/27 01:40:22;;;;;;;9.63;7.07;;;;;;;19.66;80.36;96504.41;5176193;27;20031;-80
2022/08/27 01:42:57;;;;;;;9.45;7.32;;;;;;;19.64;80.23;96505.69;5175817;27;20492;-79
2022/08/27 01:45:33;;;;;;;10.95;6.80;;;;;;;19.60;80.18;96494.78;5175881;27;20053;-80
2022/08/27 01:50:51;;;;;;;9.52;8.32;;;;;;;19.72;88.96;96500.81;5152708;22;20062;-81
2022/08/27 01:53:28;;;;;;;11.48;8.20;;;;;;;19.83;90.15;96498.28;5206299;22;20030;-79
2022/08/27 01:56:02;;;;;;;8.77;7.22;;;;;;;19.83;88.55;96498.28;5053865;28;20049;-80
2022/08/27 01:58:49;;;;;;;10.48;6.95;;;;;;;19.75;84.12;96495.03;5053468;28;20044;-79
2022/08/27 02:01:23;;;;;;;7.50;6.72;;;;;;;19.67;82.37;96490.09;5053514;28;20105;-80
2022/08/27 02:04:04;;;;;;;12.63;7.07;;;;;;;19.71;86.89;96493.91;5054285;28;20034;-81
2022/08/27 02:06:37;;;;;;;10.80;8.77;;;;;;;19.83;92.09;96490.34;5053245;28;20039;-79
2022/08/27 02:09:10;;;;;;;9.75;8.07;;;;;;;19.88;92.57;96485.94;5053732;28;20126;-79
2022/08/27 02:11:47;;;;;;;9.30;6.20;;;;;;;19.79;85.48;96489.25;5052662;28;20053;-80
2022/08/27 02:17:33;;;;;;;6.70;5.85;;;;;;;19.54;81.37;96479.84;5235230;22;20057;-79
2022/08/27 02:20:10;;;;;;;6.65;5.47;;;;;;;19.45;81.12;96483.94;5052493;28;20050;-81
2022/08/27 02:29:11;;;;;;;7.40;6.38;;;;;;;19.47;88.76;96480.03;4330412;23;20051;-80
2022/08/27 02:31:50;;;;;;;6.57;5.57;;;;;;;19.44;82.91;96472.56;4993906;28;20051;-79
2022/08/27 02:34:41;;;;;;;8.95;7.07;;;;;;;19.45;87.90;96471.53;4994436;28;20051;-81
2022/08/27 02:37:22;;;;;;;8.30;6.13;;;;;;;19.45;83.91;96470.72;4993477;28;20047;-80
2022/08/27 02:39:54;;;;;;;8.95;7.10;;;;;;;19.49;89.07;96462.06;4992916;28;20073;-80
2022/08/27 02:42:43;;;;;;;8.43;7.63;;;;;;;19.53;89.99;96465.03;4985214;28;20047;-80
2022/08/27 02:45:21;;;;;;;9.13;6.20;;;;;;;19.49;87.38;96467.34;4980114;29;20067;-80
2022/08/27 02:47:56;;;;;;;6.85;6.15;;;;;;;19.41;83.73;96459.03;4980792;28;20050;-79
2022/08/27 02:50:42;;;;;;;6.93;6.20;;;;;;;19.35;81.77;96466.88;4980693;29;20071;-79
2022/08/27 02:53:17;;;;;;;9.73;6.95;;;;;;;19.30;81.43;96461.50;4980374;29;20099;-80
2022/08/27 02:58:41;;;;;;;6.72;6.03;;;;;;;19.29;80.85;96467.84;4980435;28;20253;-81
2022/08/27 03:07:26;;;;;;;;;;;;;;;19.24;81.18;96456.38;4960660;26;20031;-81
2022/08/27 03:09:58;;;;;;;7.97;6.82;;;;;;;19.19;80.76;96459.75;4955492;28;19919;-80
2022/08/27 03:12:30;;;;;;;9.73;7.07;;;;;;;19.17;80.80;96453.88;4936344;29;20434;-80
2022/08/27 03:15:14;;;;;;;16.08;8.80;;;;;;;19.24;86.44;96451.09;4921263;29;20052;-80
2022/08/27 03:18:38;;;;;;;11.20;8.40;;;;;;;19.26;82.81;96451.66;4937782;29;20093;-83
2022/08/27 03:22:08;;;;;;;11.98;8.52;;;;;;;19.23;81.92;96444.19;4937587;29;20092;-84
2022/08/27 03:28:07;;;;;;;;;;;;;;;19.25;81.87;96437.63;5033261;23;20028;-80
2022/08/27 03:30:52;;;;;;;12.65;9.68;;;;;;;19.25;83.20;96444.78;4957896;28;19915;-82
2022/08/27 03:33:26;;;;;;;14.52;9.90;;;;;;;19.31;86.30;96444.59;4955258;28;20052;-80
2022/08/27 03:35:58;;;;;;;12.93;9.90;;;;;;;19.34;84.35;96441.47;4954730;29;20076;-81
2022/08/27 03:38:38;;;;;;;16.85;12.55;;;;;;;19.30;82.71;96440.34;4953899;29;20048;-80
2022/08/27 03:41:16;;;;;;;16.08;12.23;;;;;;;19.35;85.53;96442.28;4954244;29;20044;-80
2022/08/27 03:43:53;;;;;;;18.00;13.63;;;;;;;19.46;90.87;96443.22;4954413;29;20052;-80
2022/08/27 03:46:28;;;;;;;24.55;16.67;;;;;;;19.51;89.91;96443.31;4954242;29;20058;-80
2022/08/27 04:08:25;;;;;;;27.58;19.10;;;;;;;19.53;88.03;96435.94;4945431;28;20141;-78
2022/08/27 04:13:26;;;;;;;43.35;26.85;;;;;;;19.58;87.92;96436.00;4952317;28;20032;-80
2022/08/27 04:15:57;;;;;;;40.28;26.95;;;;;;;19.61;88.84;96432.06;4943775;29;20067;-82
2022/08/27 04:23:52;;;;;;;47.10;28.20;;;;;;;19.67;91.90;96431.88;5006405;23;19907;-80
2022/08/27 04:26:22;;;;;;;54.05;30.70;;;;;;;19.74;93.65;96432.56;4918607;29;20057;-80
2022/08/27 04:28:50;;;;;;;43.33;27.58;;;;;;;19.69;89.08;96435.13;4888722;29;20099;-80
2022/08/27 04:31:18;;;;;;;46.45;28.88;;;;;;;19.74;92.78;96432.56;4892762;29;20558;-80
2022/08/27 04:33:47;;;;;;;50.70;31.30;;;;;;;19.81;94.37;96442.16;4903635;29;20045;-79
2022/08/27 04:36:18;;;;;;;46.28;27.75;;;;;;;19.86;95.22;96439.59;4887183;29;20057;-72
2022/08/27 04:38:46;;;;;;;49.05;30.20;;;;;;;19.87;93.11;96441.19;4862343;29;20133;-72
2022/08/27 04:41:21;;;;;;;43.78;27.92;;;;;;;19.86;90.98;96444.88;4870197;29;20049;-72
2022/08/27 04:43:51;;;;;;;44.05;27.80;;;;;;;19.85;88.22;96443.28;4880658;29;20143;-72
2022/08/27 04:46:32;;;;;;;40.42;26.40;;;;;;;19.81;85.26;96442.97;4891251;29;20069;-79
2022/08/27 04:49:27;;;;;;;39.58;26.38;;;;;;;19.82;86.02;96449.06;4905285;29;20062;-79
2022/08/27 04:51:58;;;;;;;42.20;28.08;;;;;;;19.83;89.40;96440.06;4902741;29;20045;-79
2022/08/27 04:54:37;;;;;;;47.60;29.23;;;;;;;19.88;92.05;96442.81;4991631;23;20033;-87
2022/08/27 05:00:07;;;;;;;49.50;30.83;;;;;;;19.91;92.18;96453.69;4174257;23;20044;-80
2022/08/27 05:02:34;;;;;;;50.70;31.33;;;;;;;19.88;90.70;96448.09;4899670;29;20076;-81
2022/08/27 05:05:02;;;;;;;48.63;29.75;;;;;;;19.82;87.96;96454.34;4900996;29;20092;-81
2022/08/27 05:07:30;;;;;;;46.58;28.52;;;;;;;19.79;89.21;96455.66;4900193;29;20063;-81
2022/08/27 05:09:57;;;;;;;58.75;33.30;;;;;;;19.83;91.58;96453.31;4900417;29;20086;-80
2022/08/27 05:12:25;;;;;;;48.75;29.80;;;;;;;19.83;90.67;96456.78;4900754;29;20049;-80
2022/08/27 05:14:54;;;;;;;53.50;31.38;;;;;;;19.85;89.61;96459.16;4900501;29;20073;-79
2022/08/27 05:17:23;;;;;;;49.42;30.23;;;;;;;19.87;90.84;96452.56;4901858;29;20076;-80
2022/08/27 05:19:51;;;;;;;55.38;32.45;;;;;;;19.92;92.43;96449.22;4916292;29;20072;-78
2022/08/27 05:22:18;;;;;;;58.20;32.78;;;;;;;19.92;92.07;96455.31;4922751;29;20033;-80
2022/08/27 05:24:46;;;;;;;59.72;34.42;;;;;;;19.95;93.77;96459.31;4915109;29;20104;-81
2022/08/27 05:27:17;;;;;;;57.65;31.77;;;;;;;19.94;93.70;96453.22;4900888;29;20131;-80
2022/08/27 05:29:44;;;;;;;60.83;31.95;;;;;;;19.96;95.15;96455.59;4901256;29;20147;-80
2022/08/27 05:32:12;;;;;;;49.60;29.00;;;;;;;19.99;96.13;96455.13;4900433;29;20080;-81
2022/08/27 05:34:41;;;;;;;46.72;28.77;;;;;;;19.99;93.36;96455.13;4900815;29;20472;-80
2022/08/27 05:37:08;;;;;;;51.55;30.58;;;;;;;20.01;93.56;96447.75;4900290;29;20578;-80
2022/08/27 05:39:36;;;;;;;50.55;28.55;;;;;;;20.01;92.68;96447.75;4899871;29;20100;-80
2022/08/27 05:42:04;;;;;;;52.28;29.40;;;;;;;19.99;91.98;96444.53;4900358;29;20056;-80
2022/08/27 05:44:32;;;;;;;47.20;28.23;;;;;;;19.99;92.59;96449.81;4899759;29;20056;-80
2022/08/27 05:47:08;;;;;;;51.75;28.38;;;;;;;19.98;92.18;96440.28;4899933;29;20555;-81
2022/08/27 05:49:36;;;;;;;47.58;27.35;;;;;;;19.98;93.83;96448.22;4899856;29;20052;-80
2022/08/27 05:52:08;;;;;;;50.45;29.55;;;;;;;20.04;96.31;96447.22;4898090;29;20112;-82
2022/08/27 05:54:36;;;;;;;47.05;28.13;;;;;;;20.06;94.52;96447.00;4898513;29;20054;-81
2022/08/27 05:57:03;;;;;;;56.67;30.33;;;;;;;20.10;95.14;96446.25;4900607;29;20056;-81
2022/08/27 06:02:17;;;;;;;53.47;29.83;;;;;;;20.07;94.85;96448.59;4922170;23;20114;-79
2022/08/27 06:04:45;;;;;;;55.97;29.88;;;;;;;20.03;93.63;96455.41;4911954;29;20052;-79
2022/08/27 06:07:14;;;;;;;58.08;31.05;;;;;;;20.00;92.13;96458.56;4903085;29;20057;-79
2022/08/27 06:09:42;;;;;;;60.60;30.02;;;;;;;20.01;93.59;96450.38;4906652;29;20117;-79
2022/08/27 06:12:10;;;;;;;54.97;29.77;;;;;;;19.99;92.85;96455.13;4901967;29;20075;-79
2022/08/27 06:14:38;;;;;;;55.53;30.83;;;;;;;19.98;93.79;96458.81;4909064;29;20136;-79
2022/08/27 06:17:06;;;;;;;52.28;29.63;;;;;;;19.97;94.25;96459.84;4909399;29;20093;-79
2022/08/27 06:19:35;;;;;;;54.90;29.35;;;;;;;20.01;94.95;96454.88;4900227;29;20077;-79
2022/08/27 06:22:03;;;;;;;49.20;28.65;;;;;;;20.04;95.71;96464.97;4906732;29;20055;-79
2022/08/27 06:24:39;;;;;;;57.60;30.00;;;;;;;20.09;96.25;96465.03;4908349;29;20048;-79
2022/08/27 06:27:06;;;;;;;54.58;31.67;;;;;;;20.11;94.95;96461.09;4908578;29;20478;-79
2022/08/27 06:29:34;;;;;;;50.83;29.27;;;;;;;20.11;94.44;96469.03;4908834;29;20110;-79
2022/08/27 06:32:01;;;;;;;55.00;30.42;;;;;;;20.15;95.85;96462.19;4908841;29;20053;-79
2022/08/27 06:34:29;;;;;;;48.95;27.08;;;;;;;20.17;95.48;96468.06;4909198;29;20052;-79
2022/08/27 06:36:57;;;;;;;50.88;29.73;;;;;;;20.20;95.31;96465.97;4909459;29;20052;-79
2022/08/27 06:39:25;;;;;;;48.80;28.58;;;;;;;20.19;93.45;96467.03;4909493;29;20056;-79
2022/08/27 06:41:54;;;;;;;46.47;28.10;;;;;;;20.12;90.02;96473.28;4909403;29;20147;-78
2022/08/27 06:44:23;;;;;;;41.67;26.92;;;;;;;20.05;90.82;96470.03;4908496;29;20052;-78
2022/08/27 06:46:50;;;;;;;44.38;26.45;;;;;;;20.10;92.90;96472.75;4909611;29;20053;-79
2022/08/27 06:49:18;;;;;;;46.33;25.85;;;;;;;20.12;91.55;96475.94;4909280;29;20044;-79
2022/08/27 06:51:47;;;;;;;47.63;27.77;;;;;;;20.12;91.31;96481.25;4907651;29;20140;-79
2022/08/27 06:54:17;;;;;;;47.78;26.75;;;;;;;20.09;89.65;96476.41;4908787;29;20048;-79
2022/08/27 06:56:44;;;;;;;45.47;26.67;;;;;;;20.09;89.38;96479.06;4909464;29;20056;-79
2022/08/27 06:59:17;;;;;;;43.05;25.83;;;;;;;20.14;92.90;96479.16;4910238;29;20063;-79
2022/08/27 07:01:49;;;;;;;40.55;25.30;;;;;;;20.16;91.69;96477.06;4920011;29;20052;-78
2022/08/27 07:04:20;;;;;;;40.58;24.90;;;;;;;20.14;89.76;96481.78;4920203;29;20080;-79
2022/08/27 07:06:49;;;;;;;41.80;25.73;;;;;;;20.16;90.43;96481.56;4928610;29;20056;-79
2022/08/27 07:09:19;;;;;;;42.47;25.92;;;;;;;20.19;90.35;96482.91;4927834;29;20586;-79
2022/08/27 07:11:47;;;;;;;39.67;25.75;;;;;;;20.21;90.77;96478.97;4926331;29;20254;-79
2022/08/27 07:14:16;;;;;;;47.47;30.33;;;;;;;20.23;90.64;96481.38;4929376;29;20044;-79
2022/08/27 07:16:44;;;;;;;43.75;27.65;;;;;;;20.24;91.02;96477.66;4928849;29;20499;-79
2022/08/27 07:19:14;;;;;;;46.67;29.35;;;;;;;20.27;92.02;96490.41;4927019;29;20403;-79
2022/08/27 07:21:43;;;;;;;38.97;25.13;;;;;;;20.27;91.59;96491.22;4927696;29;20120;-79
2022/08/27 07:24:11;;;;;;;43.92;28.13;;;;;;;20.29;92.26;96489.13;4928897;29;20055;-79
2022/08/27 07:26:42;;;;;;;47.78;28.70;;;;;;;20.30;90.43;96497.88;4923935;29;20072;-79
2022/08/27 07:29:13;;;;;;;43.23;27.50;;;;;;;20.27;87.98;96493.06;4928436;29;20052;-79
2022/08/27 07:31:43;;;;;;;46.60;28.33;;;;;;;20.34;91.48;96497.13;4928709;29;20041;-79
2022/08/27 07:34:11;;;;;;;43.33;27.60;;;;;;;20.39;90.91;96485.81;4929247;29;20095;-79
2022/08/27 07:36:39;;;;;;;37.67;24.83;;;;;;;20.38;88.98;96489.50;4927760;29;20115;-79
2022/08/27 07:39:07;;;;;;;47.65;27.77;;;;;;;20.43;89.50;96492.22;4927788;29;20044;-79
2022/08/27 07:44:23;;;;;;;43.45;27.70;;;;;;;20.50;91.57;96498.13;4922328;29;20056;-79
2022/08/27 07:44:24;;;;;;;42.45;27.25;;;;;;;20.51;90.28;96499.72;4935493;29;20060;-79
2022/08/27 07:46:57;;;;;;;41.25;26.20;;;;;;;20.52;89.07;96501.31;4935489;29;20059;-79
2022/08/27 07:49:27;;;;;;;44.17;27.90;;;;;;;20.56;90.81;96504.28;4928097;29;20108;-79
2022/08/27 07:51:54;;;;;;;46.08;27.48;;;;;;;20.55;89.00;96505.31;4931779;29;20113;-79
2022/08/27 07:54:23;;;;;;;38.10;25.50;;;;;;;20.52;86.85;96501.31;4932841;29;20137;-79
2022/08/27 07:56:52;;;;;;;39.78;26.15;;;;;;;20.53;87.72;96502.94;4932862;29;20570;-79
2022/08/27 07:59:22;;;;;;;40.35;25.90;;;;;;;20.54;87.16;96509.81;4932980;29;20049;-79
2022/08/27 08:01:50;;;;;;;47.70;27.42;;;;;;;20.56;88.05;96510.38;4932580;29;20071;-79
2022/08/27 08:04:21;;;;;;;39.08;27.13;;;;;;;20.56;88.20;96505.09;4924503;29;20054;-79
2022/08/27 08:06:50;;;;;;;43.45;28.17;;;;;;;20.59;89.05;96514.41;4933528;29;20112;-79
2022/08/27 08:09:18;;;;;;;39.00;27.27;;;;;;;20.60;87.84;96502.78;4931149;29;20048;-79
2022/08/27 08:11:46;;;;;;;41.15;28.30;;;;;;;20.62;87.71;96515.75;4933244;29;20052;-79
2022/08/27 08:14:14;;;;;;;42.22;27.25;;;;;;;20.60;85.84;96513.38;4932950;29;20056;-79
2022/08/27 08:16:41;;;;;;;42.63;28.33;;;;;;;20.63;87.17;96512.06;4931895;29;20104;-79
2022/08/27 08:19:09;;;;;;;38.92;27.73;;;;;;;20.64;86.56;96519.78;4934476;29;20063;-79
2022/08/27 08:21:38;;;;;;;40.17;27.95;;;;;;;20.66;85.43;96520.34;4928238;29;20100;-79
2022/08/27 08:24:06;;;;;;;42.22;27.55;;;;;;;20.69;85.48;96516.41;4925629;29;20096;-79
2022/08/27 08:26:34;;;;;;;44.50;28.33;;;;;;;20.76;87.51;96517.00;4927663;29;20463;-79
2022/08/27 08:29:03;;;;;;;37.33;26.23;;;;;;;20.81;85.54;96514.38;4934133;29;20060;-79
2022/08/27 08:31:31;;;;;;;41.22;27.80;;;;;;;20.92;87.55;96520.59;4933499;29;20052;-79
2022/08/27 08:33:59;;;;;;;36.67;25.90;;;;;;;20.97;84.40;96518.81;4934543;29;20056;-79
2022/08/27 08:36:26;;;;;;;40.03;27.25;;;;;;;21.00;82.50;96517.50;4934733;29;20052;-79
2022/08/27 08:38:55;;;;;;;36.55;26.67;;;;;;;21.04;83.75;96529.22;4934694;29;20120;-79
2022/08/27 08:41:39;;;;;;;37.03;25.85;;;;;;;21.03;81.52;96526.81;4934475;29;20056;-79
2022/08/27 08:44:16;;;;;;;35.40;25.83;;;;;;;21.03;85.50;96524.94;4935422;29;20510;-79
2022/08/27 08:46:49;;;;;;;42.38;28.48;;;;;;;21.03;85.58;96522.31;4934809;29;20052;-79
2022/08/27 08:49:29;;;;;;;33.78;25.48;;;;;;;21.01;81.17;96523.59;4932052;29;20076;-79
2022/08/27 08:52:08;;;;;;;39.20;26.50;;;;;;;20.99;80.39;96527.31;4934775;29;20052;-79
2022/08/27 08:54:38;;;;;;;38.78;26.58;;;;;;;21.04;81.07;96528.44;4935273;29;20076;-79
2022/08/27 08:57:14;;;;;;;38.65;27.15;;;;;;;21.07;81.52;96525.25;4934731;29;20056;-79
2022/08/27 08:59:52;;;;;;;35.80;26.52;;;;;;;21.17;83.74;96533.34;4934138;29;20052;-79
2022/08/27 09:02:20;;;;;;;37.47;26.92;;;;;;;21.24;85.06;96531.28;4934388;29;20083;-79
2022/08/27 09:04:47;;;;;;;36.25;26.63;;;;;;;21.30;84.73;96529.47;4934301;29;20084;-79
2022/08/27 09:07:25;;;;;;;39.50;27.85;;;;;;;21.33;82.87;96532.41;4926331;29;20087;-79
2022/08/27 09:10:00;;;;;;;35.00;24.13;;;;;;;21.35;81.39;96526.84;4934572;29;20051;-79
2022/08/27 09:12:31;;;;;;;36.38;25.92;;;;;;;21.36;79.89;96536.41;4930210;29;20048;-79
2022/08/27 09:15:05;;;;;;;37.10;25.27;;;;;;;21.35;78.21;96537.47;4935476;29;20088;-79
2022/08/27 09:17:35;;;;;;;35.40;26.83;;;;;;;21.39;80.07;96535.91;4935994;29;20115;-80
2022/08/27 09:20:06;;;;;;;33.38;25.30;;;;;;;21.45;81.16;96529.63;4935310;29;20072;-79
2022/08/27 09:22:52;;;;;;;31.70;24.40;;;;;;;21.52;83.83;96532.06;4935038;29;20088;-79
2022/08/27 09:25:26;;;;;;;32.70;24.77;;;;;;;21.51;82.09;96546.38;4935613;29;20051;-79
2022/08/27 09:27:56;;;;;;;25.70;17.70;;;;;;;21.42;78.68;96550.56;4935609;29;20056;-79
2022/08/27 09:30:26;;;;;;;18.05;10.40;;;;;;;21.25;77.30;96567.34;4934155;29;20051;-79
2022/08/27 09:33:00;;;;;;;13.25;7.63;;;;;;;21.09;77.09;96569.03;4936053;29;20084;-79
2022/08/27 09:35:41;;;;;;;9.82;5.88;;;;;;;20.95;76.50;96575.81;4936826;29;20063;-79
2022/08/27 09:38:09;;;;;;;7.78;5.97;;;;;;;20.84;76.81;96572.22;4938856;29;20111;-78
2022/08/27 09:40:43;;;;;;;9.50;5.13;;;;;;;20.71;76.14;96567.31;4934986;29;20059;-79
2022/08/27 09:43:22;;;;;;;8.13;4.60;;;;;;;20.61;74.91;96561.88;4935181;29;20052;-79
2022/08/27 09:45:52;;;;;;;6.57;3.83;;;;;;;20.54;77.38;96573.41;4935732;29;20063;-79
2022/08/27 09:48:22;;;;;;;11.38;4.82;;;;;;;20.53;80.58;96571.84;4925701;29;20099;-79
2022/08/27 09:50:53;;;;;;;4.32;3.40;;;;;;;20.51;79.46;96571.28;4934684;29;20092;-79
2022/08/27 09:53:24;;;;;;;7.88;5.63;;;;;;;20.49;80.77;96573.38;4925781;29;20507;-79
2022/08/27 09:55:57;;;;;;;9.77;5.47;;;;;;;20.52;83.19;96580.03;4930594;29;20055;-79
2022/08/27 09:58:30;;;;;;;16.90;7.78;;;;;;;20.53;84.43;96578.97;4935402;29;20048;-79
2022/08/27 10:01:00;;;;;;;5.17;3.60;;;;;;;20.51;82.96;96581.88;4931610;29;20052;-79
2022/08/27 10:03:29;;;;;;;4.72;3.15;;;;;;;20.47;80.69;96578.09;4935132;29;20311;-79
2022/08/27 10:06:00;;;;;;;11.43;6.75;;;;;;;20.49;84.52;96573.38;4935142;29;20079;-79
2022/08/27 10:08:34;;;;;;;7.57;4.65;;;;;;;20.53;86.84;96573.66;4934380;29;20060;-79
2022/08/27 10:11:06;;;;;;;4.93;4.03;;;;;;;20.52;86.54;96572.88;4934121;29;20084;-79
2022/08/27 10:13:45;;;;;;;6.75;4.57;;;;;;;20.50;87.37;96574.97;4934416;29;20093;-79
2022/08/27 10:16:36;;;;;;;5.10;3.20;;;;;;;20.43;82.69;96566.41;4935327;29;20067;-79
2022/08/27 10:19:15;;;;;;;8.05;4.50;;;;;;;20.38;86.56;96569.78;4932844;29;20116;-79
2022/08/27 10:21:48;;;;;;;2.58;2.38;;;;;;;20.39;83.11;96562.63;4934832;29;20048;-79
2022/08/27 10:24:27;;;;;;;2.60;2.40;;;;;;;20.38;79.69;96569.00;4935457;29;20063;-79
2022/08/27 10:27:09;;;;;;;4.28;3.38;;;;;;;20.43;87.05;96571.69;4932445;29;20051;-79
2022/08/27 10:29:44;;;;;;;4.20;2.72;;;;;;;20.50;87.57;96574.16;4932629;29;20056;-79
2022/08/27 10:32:34;;;;;;;6.85;4.43;;;;;;;20.54;89.77;96573.41;4934053;29;20059;-79
2022/08/27 10:35:11;;;;;;;4.35;3.45;;;;;;;20.57;88.79;96575.63;4934725;29;20062;-79
2022/08/27 10:37:51;;;;;;;7.82;4.95;;;;;;;20.61;90.46;96567.97;4934215;29;20056;-79
2022/08/27 10:40:25;;;;;;;6.57;3.40;;;;;;;20.58;88.90;96566.63;4930769;29;20056;-79
2022/08/27 10:43:07;;;;;;;2.30;2.10;;;;;;;20.52;82.17;96572.88;4935147;29;20060;-79
2022/08/27 10:45:46;;;;;;;4.72;3.50;;;;;;;20.51;84.49;96565.97;4935617;29;20052;-79
2022/08/27 10:48:23;;;;;;;6.75;3.75;;;;;;;20.60;87.63;96570.84;4935414;29;20074;-78
2022/08/27 10:50:56;;;;;;;3.95;3.15;;;;;;;20.65;86.77;96570.94;4935003;29;20059;-79
2022/08/27 10:53:33;;;;;;;3.83;3.17;;;;;;;20.72;88.28;96560.94;4935305;29;20084;-79
2022/08/27 10:56:13;;;;;;;4.80;3.08;;;;;;;20.71;84.53;96568.09;4925797;29;20327;-79
2022/08/27 10:58:54;;;;;;;4.45;3.35;;;;;;;20.70;85.79;96573.63;4935107;29;20052;-79
2022/08/27 11:01:29;;;;;;;4.20;3.58;;;;;;;20.73;88.39;96571.31;4931114;29;20056;-79
2022/08/27 11:04:02;;;;;;;9.40;5.53;;;;;;;20.81;89.81;96567.41;4935116;29;20147;-79
2022/08/27 11:06:34;;;;;;;3.00;2.22;;;;;;;20.81;85.37;96567.41;4935223;29;20052;-79
2022/08/27 11:09:06;;;;;;;5.22;3.03;;;;;;;20.83;82.64;96564.50;4935300;29;20052;-79
2022/08/27 11:11:39;;;;;;;3.63;2.95;;;;;;;20.87;86.89;96563.78;4935518;29;20044;-79
2022/08/27 11:14:32;;;;;;;3.60;2.75;;;;;;;20.92;85.78;96558.50;4933893;29;20351;-79
2022/08/27 11:17:05;;;;;;;4.80;3.35;;;;;;;20.94;86.04;96559.06;4936915;29;20059;-79
2022/08/27 11:19:41;;;;;;;5.25;3.58;;;;;;;21.03;87.93;96563.94;4936444;29;20043;-79
2022/08/27 11:22:16;;;;;;;5.13;3.22;;;;;;;21.09;86.33;96561.09;4936163;29;20044;-79
2022/08/27 11:24:59;;;;;;;3.75;2.67;;;;;;;21.15;85.85;96567.25;4938628;29;20059;-79
2022/08/27 11:27:30;;;;;;;3.42;2.88;;;;;;;21.19;85.86;96573.66;4936386;29;20507;-78
2022/08/27 11:30:05;;;;;;;3.75;2.95;;;;;;;21.21;83.82;96560.97;4939808;29;20055;-78
2022/08/27 11:32:44;;;;;;;3.97;2.90;;;;;;;21.23;81.14;96563.34;4940315;29;20084;-79
2022/08/27 11:35:18;;;;;;;2.30;2.20;;;;;;;21.19;77.52;96563.84;4940705;29;20048;-79
2022/08/27 11:38:07;;;;;;;5.43;4.20;;;;;;;21.24;80.93;96560.44;4940842;29;20052;-79
2022/08/27 11:40:53;;;;;;;5.38;3.40;;;;;;;21.27;80.02;96562.59;4940549;29;20085;-79
2022/08/27 11:43:24;;;;;;;2.90;2.65;;;;;;;21.27;79.23;96559.94;4940660;29;20060;-79
2022/08/27 11:45:57;;;;;;;2.65;2.22;;;;;;;21.25;79.07;96562.03;4935604;29;20076;-79
2022/08/27 11:48:27;;;;;;;6.55;4.32;;;;;;;21.27;80.07;96569.75;4939331;29;20048;-79
2022/08/27 11:50:58;;;;;;;3.35;2.65;;;;;;;21.24;77.26;96565.75;4931234;29;20080;-79
2022/08/27 11:53:29;;;;;;;2.92;2.63;;;;;;;21.28;79.40;96568.72;4941051;29;20048;-79
2022/08/27 11:55:57;;;;;;;2.90;2.33;;;;;;;21.29;77.16;96567.66;4940423;29;20083;-79
2022/08/27 11:58:29;;;;;;;3.70;3.10;;;;;;;21.35;80.12;96561.34;4940339;29;20116;-79
2022/08/27 12:01:01;;;;;;;3.10;2.78;;;;;;;21.44;79.35;96567.03;4948444;23;20048;-87
2022/08/27 12:03:33;;;;;;;5.65;3.95;;;;;;;21.47;80.58;96569.16;4915964;29;20060;-84
2022/08/27 12:06:25;;;;;;;3.80;3.45;;;;;;;21.52;80.95;96567.38;4915657;29;20067;-83
2022/08/27 12:08:54;;;;;;;3.10;2.65;;;;;;;21.51;77.19;96555.13;4914837;29;20060;-83
2022/08/27 12:11:34;;;;;;;3.97;2.60;;;;;;;21.48;74.83;96560.16;4914011;29;20052;-82
2022/08/27 12:14:14;;;;;;;3.83;2.65;;;;;;;21.52;77.85;96558.63;4912121;29;20064;-84
2022/08/27 12:16:53;;;;;;;3.58;2.60;;;;;;;21.56;75.90;96560.50;4913732;29;20101;-83
2022/08/27 12:19:43;;;;;;;3.53;2.90;;;;;;;21.59;77.22;96551.25;4913528;29;20060;-81
2022/08/27 12:22:21;;;;;;;3.20;2.95;;;;;;;21.62;75.84;96547.28;4911781;29;20068;-82
2022/08/27 12:24:52;;;;;;;4.63;3.85;;;;;;;21.66;79.25;96541.19;4912011;29;20499;-83
2022/08/27 12:27:31;;;;;;;3.92;3.22;;;;;;;21.67;78.74;96542.81;4911886;29;20048;-85
2022/08/27 12:30:00;;;;;;;3.35;3.05;;;;;;;21.70;77.94;96541.50;4911273;29;20120;-83
2022/08/27 12:32:33;;;;;;;3.67;3.20;;;;;;;21.71;77.82;96533.28;4915159;29;20064;-87
2022/08/27 12:35:12;;;;;;;5.93;4.28;;;;;;;21.77;81.40;96536.75;4916010;29;20053;-83
2022/08/27 12:37:45;;;;;;;4.00;3.60;;;;;;;21.82;81.42;96536.78;4907911;29;20059;-82
2022/08/27 12:40:19;;;;;;;4.53;3.65;;;;;;;21.82;81.54;96534.13;4908174;29;20057;-85
2022/08/27 12:42:52;;;;;;;4.28;3.38;;;;;;;21.80;81.31;96531.75;4906252;29;20048;-81
2022/08/27 12:45:23;;;;;;;3.53;3.20;;;;;;;21.77;80.30;96526.16;4906431;29;20055;-83
2022/08/27 12:47:52;;;;;;;3.80;3.42;;;;;;;;;;4906528;29;20053;-84
2022/08/27 12:50:25;;;;;;;3.55;3.25;;;;;;;21.70;78.54;96529.03;4906867;29;20053;-86
2022/08/27 12:53:07;;;;;;;4.72;4.03;;;;;;;;;;4906018;29;20095;-84
2022/08/27 12:55:49;;;;;;;3.78;3.38;;;;;;;21.71;77.01;96527.16;4907597;29;20089;-80